Time;durP1;ratioP1;P1;durP2;ratioP2;P2;SDS_P1;SDS_P2;PMS_P1;PMS_P2;Temp;Humidity;BMP_temperature;BMP_pressure;BME280_temperature;BME280_humidity;BME280_pressure;Samples;Min_cycle;Max_cycle;Signal;HPM_P1;HPM_P2
2023/12/18 00:01:57;;;;;;;27.20;15.40;;;;;;;5.60;95.38;103098.81;5054651;28;20045;-62
2023/12/18 00:04:25;;;;;;;22.67;14.75;;;;;;;5.70;94.95;103097.25;5055595;28;20719;-64
2023/12/18 00:06:52;;;;;;;21.77;14.20;;;;;;;5.42;94.97;103099.56;5054927;28;20488;-63
2023/12/18 00:09:19;;;;;;;23.15;13.95;;;;;;;5.31;95.84;103097.56;5053567;28;20056;-63
2023/12/18 00:11:47;;;;;;;22.88;15.30;;;;;;;5.04;96.26;103100.69;5054239;28;20053;-64
2023/12/18 00:14:14;;;;;;;25.15;15.88;;;;;;;5.17;97.18;103095.13;5044107;28;20045;-62
2023/12/18 00:16:41;;;;;;;26.92;15.55;;;;;;;5.21;97.59;103083.53;5034640;28;20053;-63
2023/12/18 00:19:10;;;;;;;24.52;15.88;;;;;;;5.26;97.23;103074.69;5034003;28;20615;-62
2023/12/18 00:21:38;;;;;;;24.65;15.63;;;;;;;5.35;97.13;103082.38;5034165;28;20053;-62
2023/12/18 00:24:05;;;;;;;25.80;15.07;;;;;;;5.50;96.51;103079.34;5021029;28;20044;-62
2023/12/18 00:26:32;;;;;;;24.73;15.63;;;;;;;5.34;95.95;103082.59;5038914;28;20407;-62
2023/12/18 00:29:00;;;;;;;24.27;15.20;;;;;;;5.41;95.80;103083.41;5052619;28;20514;-62
2023/12/18 00:31:27;;;;;;;22.17;14.75;;;;;;;5.34;95.67;103086.19;5019827;28;20542;-63
2023/12/18 00:33:54;;;;;;;24.73;15.43;;;;;;;5.28;95.99;103080.78;5036702;28;20053;-65
2023/12/18 00:36:22;;;;;;;27.85;17.05;;;;;;;5.42;95.63;103077.69;5054888;28;20068;-61
2023/12/18 00:38:50;;;;;;;24.63;15.02;;;;;;;5.33;95.86;103072.75;5019886;28;20051;-61
2023/12/18 00:41:20;;;;;;;22.48;15.05;;;;;;;5.36;95.19;103075.03;5053171;28;20049;-62
2023/12/18 00:43:47;;;;;;;22.90;15.25;;;;;;;5.24;96.08;103074.06;5052221;28;20053;-62
2023/12/18 00:46:17;;;;;;;25.70;15.40;;;;;;;5.16;95.83;103085.28;5035864;28;20053;-62
2023/12/18 00:48:45;;;;;;;27.98;16.88;;;;;;;5.29;96.40;103077.81;5052703;28;20044;-61
2023/12/18 00:51:12;;;;;;;26.63;15.57;;;;;;;5.33;96.53;103076.31;5052618;28;20510;-62
2023/12/18 00:53:39;;;;;;;26.48;17.13;;;;;;;5.22;96.07;103071.56;5049552;28;20049;-61
2023/12/18 00:56:06;;;;;;;25.15;16.00;;;;;;;5.53;96.37;103070.69;5052417;28;20037;-61
2023/12/18 00:58:34;;;;;;;21.55;14.45;;;;;;;5.00;95.62;103070.25;5035276;28;20063;-62
2023/12/18 01:01:01;;;;;;;26.40;15.43;;;;;;;5.25;96.38;103064.78;5052765;28;20059;-61
2023/12/18 01:03:29;;;;;;;23.80;13.88;;;;;;;4.93;96.09;103060.41;5046730;28;20057;-61
2023/12/18 01:05:56;;;;;;;22.55;14.95;;;;;;;4.99;96.82;103051.31;5053661;28;20056;-61
2023/12/18 01:08:23;;;;;;;22.45;13.75;;;;;;;5.15;96.62;103054.38;5018932;28;20053;-61
2023/12/18 01:10:50;;;;;;;22.83;14.00;;;;;;;5.06;95.71;103055.69;5053835;28;20045;-62
2023/12/18 01:13:18;;;;;;;21.88;13.90;;;;;;;5.09;94.88;103048.97;5053640;28;20049;-60
2023/12/18 01:15:45;;;;;;;20.55;13.43;;;;;;;4.79;95.37;103056.06;5041071;28;20056;-61
2023/12/18 01:18:12;;;;;;;19.75;12.85;;;;;;;4.69;96.33;103039.34;5043767;28;20051;-61
2023/12/18 01:20:40;;;;;;;19.83;13.02;;;;;;;4.73;96.50;103037.81;5019646;28;20606;-61
2023/12/18 01:23:07;;;;;;;21.40;13.77;;;;;;;4.69;96.09;103040.16;5053653;28;20060;-62
2023/12/18 01:25:34;;;;;;;21.33;12.98;;;;;;;4.79;95.93;103029.63;5036264;28;20044;-62
2023/12/18 01:28:01;;;;;;;19.58;12.85;;;;;;;4.89;95.71;103027.22;5053730;28;20049;-62
2023/12/18 01:30:29;;;;;;;20.48;12.75;;;;;;;4.80;96.42;103034.00;5053460;28;20045;-62
2023/12/18 01:32:57;;;;;;;19.70;12.38;;;;;;;4.83;96.41;103035.47;5053394;28;20055;-61
2023/12/18 01:35:25;;;;;;;21.52;13.25;;;;;;;5.04;95.38;103038.69;5052339;28;20040;-61
2023/12/18 01:37:52;;;;;;;20.42;12.93;;;;;;;5.06;94.83;103041.19;5052760;28;20048;-62
2023/12/18 01:40:19;;;;;;;19.13;11.95;;;;;;;5.09;93.80;103041.59;5052127;28;20068;-61
2023/12/18 01:42:46;;;;;;;21.48;12.82;;;;;;;5.20;93.46;103050.97;5017481;28;20052;-61
2023/12/18 01:45:14;;;;;;;18.58;12.48;;;;;;;5.12;92.76;103054.81;5052648;28;20052;-62
2023/12/18 01:47:41;;;;;;;19.30;12.82;;;;;;;5.24;92.65;103053.06;5052229;28;20060;-62
2023/12/18 01:50:09;;;;;;;19.02;12.50;;;;;;;5.33;92.55;103056.34;5052106;28;20068;-62
2023/12/18 01:52:37;;;;;;;19.27;12.45;;;;;;;5.08;92.90;103053.59;5064104;28;20598;-60
2023/12/18 01:55:05;;;;;;;20.35;13.07;;;;;;;4.96;92.82;103049.03;5064513;28;20061;-61
2023/12/18 01:57:33;;;;;;;18.70;12.05;;;;;;;5.14;93.24;103047.25;5053046;28;20129;-61
2023/12/18 02:00:01;;;;;;;18.65;12.45;;;;;;;5.13;92.58;103051.03;5052461;28;20056;-62
2023/12/18 02:02:31;;;;;;;18.35;11.88;;;;;;;5.06;92.30;103049.38;5035383;28;20072;-61
2023/12/18 02:04:59;;;;;;;17.52;11.13;;;;;;;4.94;92.77;103046.53;5017801;28;20060;-62
2023/12/18 02:07:27;;;;;;;18.13;11.73;;;;;;;4.98;93.44;103050.50;5050690;28;20053;-62
2023/12/18 02:09:54;;;;;;;18.10;11.90;;;;;;;4.96;93.74;103043.56;5050921;28;20053;-62
2023/12/18 02:12:22;;;;;;;17.17;10.63;;;;;;;5.01;93.23;103050.06;5052450;28;20036;-61
2023/12/18 02:14:49;;;;;;;17.42;11.40;;;;;;;5.05;92.70;103047.72;5051483;28;20064;-61
2023/12/18 02:17:16;;;;;;;18.85;11.52;;;;;;;4.99;92.28;103051.31;5034083;28;20052;-62
2023/12/18 02:19:43;;;;;;;17.10;11.20;;;;;;;5.03;92.53;103049.81;5034649;28;20049;-61
2023/12/18 02:22:11;;;;;;;17.20;11.20;;;;;;;4.88;92.75;103043.84;5034048;28;20369;-62
2023/12/18 02:24:38;;;;;;;18.52;11.13;;;;;;;5.02;93.13;103045.44;5052733;28;20052;-62
2023/12/18 02:27:06;;;;;;;18.55;11.15;;;;;;;5.18;92.43;103055.81;5051666;28;20049;-60
2023/12/18 02:29:33;;;;;;;17.23;10.90;;;;;;;5.18;92.08;103050.34;5041829;28;20049;-61
2023/12/18 02:32:00;;;;;;;19.80;12.27;;;;;;;4.51;94.18;103045.50;5032640;28;20507;-62
2023/12/18 02:34:27;;;;;;;18.77;12.13;;;;;;;4.16;96.41;103046.88;5050617;28;20053;-63
2023/12/18 02:37:00;;;;;;;21.58;13.00;;;;;;;4.29;97.26;103047.69;5052414;28;20084;-62
2023/12/18 02:39:28;;;;;;;18.52;11.52;;;;;;;4.53;97.33;103043.41;5052225;28;21055;-60
2023/12/18 02:41:55;;;;;;;18.50;11.27;;;;;;;4.66;96.64;103039.75;5051550;28;20049;-61
2023/12/18 02:44:22;;;;;;;21.73;13.13;;;;;;;4.77;96.08;103050.84;5033782;28;20053;-61
2023/12/18 02:46:49;;;;;;;19.10;11.13;;;;;;;4.80;94.59;103039.47;5051470;28;20037;-61
2023/12/18 02:49:17;;;;;;;17.85;12.15;;;;;;;4.60;94.93;103039.56;5050828;28;20141;-62
2023/12/18 02:51:44;;;;;;;18.92;12.02;;;;;;;4.68;95.58;103037.63;5051739;28;20151;-62
2023/12/18 02:54:12;;;;;;;18.98;12.13;;;;;;;4.74;96.00;103032.16;5052129;28;20056;-60
2023/12/18 02:56:39;;;;;;;17.52;11.10;;;;;;;4.74;94.31;103037.63;5052024;28;20041;-62
2023/12/18 02:59:06;;;;;;;17.90;11.65;;;;;;;4.70;94.67;103044.56;5052028;28;20049;-61
2023/12/18 03:01:35;;;;;;;20.75;12.25;;;;;;;4.45;95.47;103041.75;5051509;28;20148;-61
2023/12/18 03:04:02;;;;;;;19.85;12.32;;;;;;;4.49;95.72;103042.16;5052033;28;20049;-61
2023/12/18 03:06:30;;;;;;;18.40;11.60;;;;;;;4.51;95.92;103049.06;5049987;28;20056;-63
2023/12/18 03:08:57;;;;;;;18.40;11.90;;;;;;;4.62;95.60;103042.06;5051417;28;20053;-60
2023/12/18 03:11:24;;;;;;;19.08;11.82;;;;;;;4.66;94.99;103037.00;5051065;28;20060;-61
2023/12/18 03:13:51;;;;;;;18.23;11.65;;;;;;;5.02;94.71;103037.25;5051771;28;20045;-61
2023/12/18 03:16:19;;;;;;;18.02;11.77;;;;;;;4.75;93.42;103032.97;5051188;28;20056;-62
2023/12/18 03:18:46;;;;;;;17.60;11.82;;;;;;;5.05;93.19;103036.78;5051753;28;20049;-61
2023/12/18 03:21:13;;;;;;;18.98;12.00;;;;;;;4.95;93.07;103042.72;5051782;28;20053;-62
2023/12/18 03:23:41;;;;;;;19.35;12.05;;;;;;;4.89;92.97;103038.16;5051831;28;20053;-61
2023/12/18 03:26:08;;;;;;;16.95;11.10;;;;;;;5.04;93.07;103044.16;5033236;28;20048;-61
2023/12/18 03:28:35;;;;;;;19.80;12.38;;;;;;;5.17;92.47;103038.59;5052016;28;20076;-61
2023/12/18 03:31:02;;;;;;;19.88;12.05;;;;;;;5.06;92.72;103038.47;5051514;28;20049;-61
2023/12/18 03:33:30;;;;;;;20.33;13.20;;;;;;;5.19;92.77;103031.03;5041795;28;20053;-61
2023/12/18 03:35:57;;;;;;;19.88;13.07;;;;;;;5.09;92.86;103029.84;5031515;28;20056;-65
2023/12/18 03:38:25;;;;;;;20.17;13.10;;;;;;;5.18;92.85;103031.22;5032542;28;20052;-63
2023/12/18 03:40:52;;;;;;;22.45;13.40;;;;;;;5.15;92.54;103031.69;5013926;28;20072;-63
2023/12/18 03:43:19;;;;;;;20.98;12.82;;;;;;;5.20;92.54;103029.09;5032795;28;20068;-63
2023/12/18 03:45:47;;;;;;;20.75;13.13;;;;;;;5.18;92.51;103026.59;5049352;28;20392;-63
2023/12/18 03:48:14;;;;;;;21.15;13.85;;;;;;;5.18;92.85;103026.59;5050976;28;20048;-63
2023/12/18 03:50:42;;;;;;;20.50;13.05;;;;;;;5.18;92.90;103028.50;5050735;28;20090;-63
2023/12/18 03:53:10;;;;;;;22.27;13.77;;;;;;;5.13;93.45;103028.31;5050807;28;20053;-63
2023/12/18 03:55:38;;;;;;;21.70;13.07;;;;;;;5.05;93.90;103028.59;5051632;28;20057;-63
2023/12/18 03:58:05;;;;;;;20.83;12.93;;;;;;;5.06;93.59;103028.38;5043758;28;20045;-63
2023/12/18 04:00:34;;;;;;;20.20;13.00;;;;;;;5.15;93.64;103031.69;5051448;28;20389;-62
2023/12/18 04:03:04;;;;;;;21.25;12.73;;;;;;;5.11;93.08;103036.75;5050731;28;20064;-62
2023/12/18 04:05:32;;;;;;;20.30;12.85;;;;;;;5.08;93.37;103033.63;5052763;28;20064;-63
2023/12/18 04:07:59;;;;;;;21.30;13.30;;;;;;;4.93;93.41;103041.28;5035832;28;20488;-63
2023/12/18 04:10:27;;;;;;;19.38;12.15;;;;;;;5.02;93.69;103039.97;5055136;28;20057;-62
2023/12/18 04:12:54;;;;;;;20.15;12.73;;;;;;;5.01;93.38;103039.13;5055314;28;20067;-63
2023/12/18 04:15:21;;;;;;;19.45;12.27;;;;;;;4.95;93.40;103041.91;5017643;28;20056;-63
2023/12/18 04:17:49;;;;;;;21.55;13.38;;;;;;;5.03;93.07;103038.91;5000746;28;20056;-63
2023/12/18 04:20:16;;;;;;;19.60;12.25;;;;;;;4.97;93.02;103037.06;5035176;28;20053;-63
2023/12/18 04:22:44;;;;;;;19.67;13.30;;;;;;;4.96;94.12;103032.66;5052306;28;20045;-62
2023/12/18 04:25:11;;;;;;;21.33;13.68;;;;;;;4.89;93.99;103032.69;5054805;28;20057;-63
2023/12/18 04:27:38;;;;;;;19.92;12.70;;;;;;;5.01;94.19;103036.41;5054532;28;20515;-62
2023/12/18 04:30:06;;;;;;;20.63;12.93;;;;;;;5.03;93.04;103028.81;5054613;28;20151;-62
2023/12/18 04:32:33;;;;;;;20.65;12.38;;;;;;;4.91;93.07;103041.50;5049904;28;20041;-64
2023/12/18 04:35:02;;;;;;;18.45;12.05;;;;;;;4.85;94.17;103036.06;5035113;28;20062;-62
2023/12/18 04:37:29;;;;;;;18.65;11.93;;;;;;;4.94;94.29;103032.88;5034970;28;20053;-62
2023/12/18 04:39:57;;;;;;;20.42;12.43;;;;;;;4.84;93.75;103032.53;5043962;28;20488;-63
2023/12/18 04:42:24;;;;;;;19.80;12.52;;;;;;;4.99;94.00;103026.75;5035667;28;20049;-63
2023/12/18 04:44:51;;;;;;;18.45;12.35;;;;;;;5.02;93.15;103027.13;5035942;28;20049;-64
2023/12/18 04:47:19;;;;;;;18.42;11.15;;;;;;;4.90;92.97;103028.91;5052649;28;20048;-63
2023/12/18 04:49:47;;;;;;;20.13;12.77;;;;;;;4.90;93.11;103031.63;5053774;28;20048;-64
2023/12/18 04:52:14;;;;;;;19.02;11.70;;;;;;;5.00;93.62;103029.28;5054431;28;20053;-61
2023/12/18 04:54:41;;;;;;;17.83;11.75;;;;;;;5.03;92.93;103031.56;5036541;28;20045;-61
2023/12/18 04:57:09;;;;;;;19.33;11.82;;;;;;;4.76;93.79;103031.94;5050870;28;20049;-60
2023/12/18 04:59:36;;;;;;;18.98;12.15;;;;;;;5.08;93.82;103030.88;5034039;28;20090;-61
2023/12/18 05:02:03;;;;;;;17.65;12.18;;;;;;;4.98;93.07;103033.28;5033009;28;20057;-61
2023/12/18 05:04:31;;;;;;;19.02;12.15;;;;;;;4.76;93.31;103034.69;5033680;28;20408;-61
2023/12/18 05:06:58;;;;;;;19.55;12.25;;;;;;;4.66;94.30;103034.28;5032732;28;20056;-60
2023/12/18 05:09:25;;;;;;;21.30;13.27;;;;;;;4.65;94.93;103044.38;5034023;28;20048;-62
2023/12/18 05:11:53;;;;;;;20.48;12.70;;;;;;;4.53;95.30;103038.75;5016243;28;20045;-61
2023/12/18 05:14:20;;;;;;;21.38;13.20;;;;;;;4.70;96.11;103027.34;5027730;28;20053;-61
2023/12/18 05:16:47;;;;;;;19.40;12.50;;;;;;;4.54;95.92;103026.81;5052331;28;20188;-61
2023/12/18 05:19:15;;;;;;;18.77;12.15;;;;;;;4.64;96.12;103020.84;5053073;28;20432;-62
2023/12/18 05:21:42;;;;;;;18.88;11.70;;;;;;;4.60;95.63;103023.19;5052415;28;20048;-60
2023/12/18 05:24:09;;;;;;;18.55;11.68;;;;;;;4.21;96.29;103020.66;5052308;28;20044;-61
2023/12/18 05:26:37;;;;;;;18.80;11.80;;;;;;;4.43;95.80;103021.16;5054288;28;20045;-63
2023/12/18 05:29:04;;;;;;;18.88;11.25;;;;;;;4.03;96.15;103017.75;5053327;28;20047;-62
2023/12/18 05:31:31;;;;;;;16.65;10.82;;;;;;;3.99;97.14;103023.88;5052795;28;20064;-60
2023/12/18 05:33:59;;;;;;;16.35;10.40;;;;;;;3.96;96.96;103024.28;5052079;28;20049;-61
2023/12/18 05:36:27;;;;;;;17.83;11.27;;;;;;;4.04;97.59;103034.97;5052608;28;20530;-60
2023/12/18 05:38:54;;;;;;;18.15;10.65;;;;;;;4.00;97.09;103039.16;5052755;28;20056;-61
2023/12/18 05:41:21;;;;;;;14.15;9.10;;;;;;;3.87;96.09;103042.75;5052917;28;20458;-61
2023/12/18 05:43:48;;;;;;;17.45;10.25;;;;;;;3.74;97.10;103045.50;5053083;28;20124;-60
2023/12/18 05:46:16;;;;;;;16.85;10.65;;;;;;;3.52;97.77;103037.78;5043951;28;20059;-62
2023/12/18 05:48:43;;;;;;;16.85;10.93;;;;;;;3.64;99.18;103036.94;5042232;28;20053;-61
2023/12/18 05:51:20;;;;;;;16.15;10.93;;;;;;;3.83;98.51;103036.06;5052703;28;20049;-62
2023/12/18 05:53:48;;;;;;;16.90;10.80;;;;;;;4.15;97.61;103035.13;5050942;28;20049;-61
2023/12/18 05:56:16;;;;;;;15.55;9.95;;;;;;;4.25;96.57;103024.59;5050918;28;20052;-63
2023/12/18 05:58:43;;;;;;;16.10;10.43;;;;;;;4.29;95.71;103028.56;5052047;28;20044;-61
2023/12/18 06:01:11;;;;;;;15.65;10.25;;;;;;;4.50;94.31;103021.97;5034433;28;20053;-62
2023/12/18 06:03:38;;;;;;;15.30;10.23;;;;;;;4.43;93.80;103026.63;5017999;28;20071;-63
2023/12/18 06:06:06;;;;;;;15.57;9.57;;;;;;;4.54;93.12;103025.97;5053122;28;20041;-63
2023/12/18 06:08:37;;;;;;;13.95;9.45;;;;;;;4.37;92.56;103031.09;5052279;28;20045;-63
2023/12/18 06:11:04;;;;;;;16.17;10.00;;;;;;;4.34;91.66;103031.50;5052346;28;20049;-63
2023/12/18 06:13:31;;;;;;;15.02;10.10;;;;;;;4.06;92.42;103025.50;5029767;28;20102;-63
2023/12/18 06:16:00;;;;;;;14.85;9.73;;;;;;;4.46;92.64;103027.03;5048632;28;20055;-63
2023/12/18 06:18:28;;;;;;;14.93;9.57;;;;;;;4.39;92.43;103020.75;5051482;28;20045;-62
2023/12/18 06:20:55;;;;;;;14.15;9.35;;;;;;;4.56;92.01;103032.03;5052724;28;20045;-62
2023/12/18 06:23:22;;;;;;;15.45;9.43;;;;;;;4.52;91.20;103023.44;5038062;28;20059;-62
2023/12/18 06:25:49;;;;;;;16.30;10.38;;;;;;;4.40;91.76;103033.38;5052774;28;20053;-61
2023/12/18 06:28:17;;;;;;;16.50;10.18;;;;;;;4.62;91.89;103033.06;5051781;28;20484;-63
2023/12/18 06:30:44;;;;;;;17.17;10.70;;;;;;;4.53;91.83;103035.22;5050879;28;20056;-63
2023/12/18 06:33:15;;;;;;;18.20;11.60;;;;;;;4.37;92.84;103033.81;5051905;28;20055;-63
2023/12/18 06:35:43;;;;;;;16.60;10.77;;;;;;;4.40;92.66;103038.84;5034663;28;20057;-61
2023/12/18 06:38:10;;;;;;;19.67;10.57;;;;;;;4.41;92.65;103036.94;5052226;28;20463;-63
2023/12/18 06:40:37;;;;;;;16.85;10.35;;;;;;;4.39;92.34;103053.50;5051069;28;20048;-64
2023/12/18 06:43:04;;;;;;;16.58;10.32;;;;;;;4.46;93.25;103048.03;5051386;28;20060;-63
2023/12/18 06:45:32;;;;;;;14.73;9.65;;;;;;;4.26;92.54;103055.44;5049900;28;20154;-63
2023/12/18 06:47:59;;;;;;;15.52;10.23;;;;;;;4.20;93.04;103050.88;5033432;28;20053;-64
2023/12/18 06:50:26;;;;;;;15.77;9.98;;;;;;;4.36;92.70;103047.66;5044414;28;20116;-62
2023/12/18 06:52:53;;;;;;;16.77;10.00;;;;;;;4.26;92.76;103047.25;5050986;28;20052;-63
2023/12/18 06:55:21;;;;;;;16.90;10.30;;;;;;;4.29;92.52;103049.56;5050386;28;20511;-63
2023/12/18 06:57:48;;;;;;;16.42;10.45;;;;;;;4.37;92.91;103044.72;5051626;28;20037;-63
2023/12/18 07:00:16;;;;;;;17.88;9.65;;;;;;;4.25;91.90;103049.16;5051473;28;20052;-64
2023/12/18 07:02:43;;;;;;;14.18;9.75;;;;;;;4.03;92.95;103057.81;5051692;28;20427;-63
2023/12/18 07:05:11;;;;;;;14.40;9.23;;;;;;;3.74;94.09;103061.00;5051139;28;20535;-61
2023/12/18 07:07:38;;;;;;;14.52;9.43;;;;;;;3.61;94.72;103056.41;5052093;28;20507;-61
2023/12/18 07:10:06;;;;;;;13.93;9.85;;;;;;;3.91;93.68;103059.50;5051884;28;20052;-62
2023/12/18 07:12:33;;;;;;;15.27;9.38;;;;;;;3.80;93.63;103065.63;5052041;28;20049;-62
2023/12/18 07:15:01;;;;;;;14.70;8.77;;;;;;;3.43;94.19;103070.66;5033810;28;20052;-62
2023/12/18 07:17:28;;;;;;;13.10;9.05;;;;;;;3.27;95.76;103067.50;5051829;28;20048;-62
2023/12/18 07:19:56;;;;;;;13.98;9.20;;;;;;;3.28;96.05;103072.75;5051634;28;20041;-63
2023/12/18 07:22:23;;;;;;;13.80;8.80;;;;;;;3.05;95.84;103068.75;5050562;28;20045;-64
2023/12/18 07:24:50;;;;;;;13.30;8.90;;;;;;;2.84;97.27;103082.50;5051226;28;20412;-63
2023/12/18 07:27:18;;;;;;;14.88;9.43;;;;;;;2.88;98.14;103089.19;5051269;28;20057;-63
2023/12/18 07:29:45;;;;;;;16.55;10.50;;;;;;;2.68;98.32;103085.59;5059400;28;20061;-66
2023/12/18 07:32:12;;;;;;;16.80;11.30;;;;;;;2.38;100.00;103092.34;5060487;28;20062;-62
2023/12/18 07:34:39;;;;;;;17.95;11.68;;;;;;;2.68;100.00;103080.16;5032573;28;20057;-63
2023/12/18 07:37:07;;;;;;;43.03;27.65;;;;;;;2.66;100.00;103087.66;5051337;28;20045;-64
2023/12/18 07:39:34;;;;;;;17.50;10.68;;;;;;;2.83;100.00;103086.25;5051316;28;20045;-62
2023/12/18 07:42:01;;;;;;;16.52;11.23;;;;;;;3.19;100.00;103086.78;5055085;28;20041;-63
2023/12/18 07:44:29;;;;;;;18.70;11.15;;;;;;;3.47;99.13;103093.72;5055525;28;20507;-63
2023/12/18 07:46:56;;;;;;;18.85;11.95;;;;;;;3.56;97.87;103099.78;5055053;28;20673;-64
2023/12/18 07:49:24;;;;;;;19.10;13.68;;;;;;;3.62;96.79;103089.94;5055756;28;20045;-64
2023/12/18 07:51:51;;;;;;;18.92;11.80;;;;;;;3.89;96.18;103094.34;5055850;28;20048;-63
2023/12/18 07:54:18;;;;;;;30.75;19.90;;;;;;;3.93;94.72;103090.13;5055102;28;20045;-63
2023/12/18 07:56:45;;;;;;;18.83;12.27;;;;;;;3.90;94.14;103087.84;5054158;28;20061;-62
2023/12/18 07:59:15;;;;;;;17.17;10.57;;;;;;;3.68;93.55;103091.84;5054175;28;20371;-63
2023/12/18 08:01:43;;;;;;;15.82;10.32;;;;;;;3.68;94.31;103089.94;5054796;28;20057;-62
2023/12/18 08:04:10;;;;;;;17.08;10.75;;;;;;;3.72;94.12;103098.53;5048801;28;20041;-64
2023/12/18 08:06:37;;;;;;;16.63;10.68;;;;;;;3.64;94.85;103094.16;5037512;28;20045;-62
2023/12/18 08:09:05;;;;;;;15.77;10.38;;;;;;;3.60;93.72;103095.63;5018176;28;20728;-62
2023/12/18 08:11:33;;;;;;;16.83;11.00;;;;;;;3.60;94.26;103101.06;5029597;28;20064;-62
2023/12/18 08:14:00;;;;;;;15.45;10.82;;;;;;;3.49;94.07;103098.94;5027979;28;20052;-62
2023/12/18 08:16:28;;;;;;;17.50;11.15;;;;;;;3.50;94.08;103095.19;5031412;28;20433;-61
2023/12/18 08:18:55;;;;;;;17.98;11.75;;;;;;;3.60;94.21;103094.75;5035493;28;20053;-62
2023/12/18 08:21:24;;;;;;;16.83;10.80;;;;;;;4.44;94.61;103091.06;5046110;28;20049;-64
2023/12/18 08:23:52;;;;;;;16.35;9.63;;;;;;;5.23;92.92;103092.34;5034369;28;20144;-63
2023/12/18 08:26:20;;;;;;;13.98;9.35;;;;;;;5.37;91.71;103085.72;5054790;28;20053;-63
2023/12/18 08:28:47;;;;;;;18.23;11.05;;;;;;;5.40;90.08;103081.72;5043410;28;20049;-63
2023/12/18 08:31:14;;;;;;;18.95;10.48;;;;;;;5.29;85.88;103077.81;5050452;28;20504;-62
2023/12/18 08:33:41;;;;;;;15.50;9.95;;;;;;;5.06;85.36;103084.88;5057628;28;20041;-63
2023/12/18 08:36:09;;;;;;;14.55;9.73;;;;;;;4.89;86.02;103081.84;5053926;28;20049;-63
2023/12/18 08:38:36;;;;;;;17.35;10.13;;;;;;;4.59;86.17;103076.09;5052007;28;20055;-63
2023/12/18 08:41:03;;;;;;;15.82;10.45;;;;;;;4.60;86.46;103076.97;5053870;28;20106;-62
2023/12/18 08:43:31;;;;;;;15.27;10.23;;;;;;;4.71;86.56;103068.06;5034654;28;20049;-64
2023/12/18 08:45:58;;;;;;;17.95;10.52;;;;;;;4.67;85.90;103074.19;5068689;28;20048;-64
2023/12/18 08:48:26;;;;;;;16.95;10.57;;;;;;;4.60;85.52;103076.97;5025725;28;20615;-63
2023/12/18 08:50:53;;;;;;;40.60;25.17;;;;;;;4.58;86.06;103074.41;5052284;28;20067;-64
2023/12/18 08:53:20;;;;;;;18.48;12.32;;;;;;;4.39;86.84;103075.34;5057018;28;20512;-63
2023/12/18 08:55:47;;;;;;;16.35;10.10;;;;;;;4.53;86.21;103076.16;5057440;28;20059;-64
2023/12/18 08:58:15;;;;;;;16.50;10.43;;;;;;;4.39;86.82;103069.88;5059926;28;20530;-63
2023/12/18 09:00:43;;;;;;;15.65;10.55;;;;;;;4.40;86.91;103070.72;5028110;28;20052;-63
2023/12/18 09:03:10;;;;;;;15.95;10.52;;;;;;;4.35;86.56;103067.81;5052989;28;20684;-63
2023/12/18 09:05:37;;;;;;;15.80;10.30;;;;;;;4.49;86.88;103067.56;5039480;28;20053;-63
2023/12/18 09:08:08;;;;;;;;;;;;;;;4.64;86.30;103063.72;5073826;28;20705;-64
2023/12/18 09:10:35;;;;;;;17.38;10.40;;;;;;;4.89;85.82;103064.63;5063582;28;20366;-64
2023/12/18 09:13:03;;;;;;;16.42;10.20;;;;;;;4.87;84.44;103070.31;5015405;28;20053;-63
2023/12/18 09:15:31;;;;;;;15.38;10.27;;;;;;;4.83;84.06;103071.78;5032811;28;20067;-63
2023/12/18 09:18:01;;;;;;;18.17;10.93;;;;;;;4.46;84.21;103067.97;5035542;28;20040;-63
2023/12/18 09:20:34;;;;;;;20.92;14.43;;;;;;;4.52;83.90;103066.25;5032276;28;20053;-64
2023/12/18 09:23:05;;;;;;;17.05;10.00;;;;;;;4.37;83.73;103066.56;5036879;28;20049;-65
2023/12/18 09:25:38;;;;;;;15.57;10.27;;;;;;;4.42;84.59;103064.00;5017487;28;20049;-65
2023/12/18 09:28:11;;;;;;;15.38;9.82;;;;;;;4.56;83.22;103062.91;5021284;28;20053;-63
2023/12/18 09:30:52;;;;;;;13.68;8.40;;;;;;;4.11;83.16;103069.34;5017767;28;20041;-65
2023/12/18 09:33:26;;;;;;;16.10;9.57;;;;;;;3.51;85.00;103072.34;5035517;28;20695;-63
2023/12/18 09:35:53;;;;;;;15.10;10.43;;;;;;;2.93;89.05;103070.41;5026993;28;20045;-63
2023/12/18 09:38:21;;;;;;;15.68;10.25;;;;;;;3.20;89.46;103067.50;5050245;28;20072;-63
2023/12/18 09:40:48;;;;;;;14.88;9.68;;;;;;;2.85;89.50;103065.97;5042343;28;20174;-62
2023/12/18 09:43:17;;;;;;;16.38;11.13;;;;;;;2.85;90.56;103085.03;5023237;28;20061;-64
2023/12/18 09:45:47;;;;;;;18.33;10.82;;;;;;;3.12;90.41;103067.69;5049684;28;20045;-63
2023/12/18 09:48:18;;;;;;;16.77;11.65;;;;;;;3.29;89.54;103079.91;5053417;28;20049;-62
2023/12/18 09:50:46;;;;;;;18.33;11.43;;;;;;;3.49;88.64;103068.97;5052596;28;20033;-65
2023/12/18 09:53:16;;;;;;;18.27;10.75;;;;;;;3.63;87.63;103084.28;5024836;28;20270;-65
2023/12/18 09:55:44;;;;;;;;;;;;;;;3.68;87.78;103089.94;5054262;28;20539;-64
2023/12/18 09:58:13;;;;;;;17.90;11.52;;;;;;;3.51;88.18;103088.69;5047205;28;20410;-63
2023/12/18 10:00:40;;;;;;;16.92;11.38;;;;;;;3.51;87.69;103099.59;5045006;28;20044;-64
2023/12/18 10:03:08;;;;;;;19.05;11.20;;;;;;;3.83;87.44;103097.91;5047698;28;20062;-62
2023/12/18 10:05:36;;;;;;;17.42;11.43;;;;;;;4.05;86.79;103093.88;5055414;28;20056;-64
2023/12/18 10:08:04;;;;;;;15.88;10.60;;;;;;;4.07;85.83;103097.25;5048949;28;20056;-62
2023/12/18 10:10:31;;;;;;;16.90;10.90;;;;;;;3.89;85.65;103089.72;5042786;28;20596;-62
2023/12/18 10:12:58;;;;;;;16.42;11.00;;;;;;;4.03;85.30;103091.38;5046770;28;20053;-63
2023/12/18 10:15:28;;;;;;;18.08;11.57;;;;;;;4.13;85.98;103086.31;5051103;28;20048;-65
2023/12/18 10:17:56;;;;;;;17.50;11.57;;;;;;;4.28;84.55;103078.75;5011552;28;20049;-62
2023/12/18 10:20:23;;;;;;;14.98;9.90;;;;;;;4.38;84.34;103072.81;5054548;28;20516;-60
2023/12/18 10:22:52;;;;;;;17.33;10.75;;;;;;;3.80;85.32;103071.91;5047372;28;20041;-62
2023/12/18 10:25:22;;;;;;;21.33;14.35;;;;;;;3.84;86.08;103069.59;5047502;28;20127;-63
2023/12/18 10:27:50;;;;;;;22.05;14.73;;;;;;;3.84;85.89;103061.41;5050545;28;20052;-62
2023/12/18 10:30:17;;;;;;;19.13;11.98;;;;;;;4.01;86.46;103070.84;5050788;28;20052;-62
2023/12/18 10:32:46;;;;;;;17.23;11.35;;;;;;;4.22;85.66;103054.22;5034182;28;20060;-63
2023/12/18 10:35:14;;;;;;;18.58;11.35;;;;;;;4.36;85.08;103058.56;5033761;28;20061;-62
2023/12/18 10:37:48;;;;;;;16.92;11.57;;;;;;;4.38;84.07;103062.75;5034709;28;20063;-63
2023/12/18 10:40:18;;;;;;;21.95;15.20;;;;;;;4.55;84.26;103061.22;5027809;28;20052;-62
2023/12/18 10:42:51;;;;;;;23.50;15.55;;;;;;;4.62;83.59;103065.81;5040318;28;20048;-64
2023/12/18 10:45:19;;;;;;;17.70;11.63;;;;;;;4.54;83.09;103067.75;5058415;28;20060;-63
2023/12/18 10:47:47;;;;;;;18.48;11.27;;;;;;;4.19;83.99;103068.28;5027458;28;20055;-61
2023/12/18 10:50:20;;;;;;;17.20;12.13;;;;;;;4.04;85.16;103070.41;5040741;28;20053;-63
2023/12/18 10:52:48;;;;;;;20.75;13.70;;;;;;;4.46;85.13;103053.50;5035985;28;20496;-63
2023/12/18 10:55:16;;;;;;;18.45;11.85;;;;;;;4.57;84.07;103050.91;5033438;28;20055;-62
2023/12/18 10:57:44;;;;;;;20.33;11.95;;;;;;;4.53;83.73;103052.41;5042747;28;20056;-64
2023/12/18 11:00:15;;;;;;;16.95;11.18;;;;;;;4.56;83.14;103056.59;5046335;28;20440;-62
2023/12/18 11:02:43;;;;;;;19.77;11.35;;;;;;;4.78;83.10;103052.50;5042970;28;20052;-62
2023/12/18 11:05:12;;;;;;;17.98;11.23;;;;;;;4.92;82.40;103053.25;5034308;28;20124;-63
2023/12/18 11:07:40;;;;;;;18.52;11.88;;;;;;;4.51;82.17;103062.72;5061638;28;20459;-64
2023/12/18 11:10:08;;;;;;;18.48;11.75;;;;;;;4.25;83.57;103056.50;5047565;28;20044;-65
2023/12/18 11:12:40;;;;;;;20.90;12.80;;;;;;;4.53;83.68;103065.22;5057434;28;20045;-63
2023/12/18 11:15:37;;;;;;;21.08;12.02;;;;;;;4.44;83.13;103069.25;5061446;28;20048;-64
2023/12/18 11:18:42;;;;;;;19.55;11.05;;;;;;;4.27;84.82;103066.13;5048356;28;20694;-62
2023/12/18 11:21:09;;;;;;;18.20;11.52;;;;;;;4.54;84.30;103064.16;5051847;28;20049;-62
2023/12/18 11:23:39;;;;;;;20.60;11.82;;;;;;;4.28;84.79;103062.38;5035664;28;20057;-63